EmailTwitter


Surface observations / United Kingdom / EGLL (03772)

Regions: Quebec | Canada | USA | Europe | France | UK | Elsewhere
Station
Display
Info & Location for EGLL (03772) | Help decoding METAR

Weather Conditions observed on 2019/09/22 at 22:50 UTC at LONDON/HEATHROW, UK (EGLL)

Sky conditions: few clouds.

Temperature: 14.0 Celsius.

Dewpoint: 13.0 Celsius.

Relative Humidity: 94%

Winds: South at 9 km/h or 5 knots.

Mean Sea level Pressure: 100.70 kilopascals.

Horizontal visibility: 6.21 statute miles or 9.94 kilometers.

Coded METAR:

EGLL 222250Z AUTO 19005KT 9999 FEW046 14/13 Q1007 NOSIG=